Time;durP1;ratioP1;P1;durP2;ratioP2;P2;SDS_P1;SDS_P2;PMS_P1;PMS_P2;Temp;Humidity;BMP_temperature;BMP_pressure;BME280_temperature;BME280_humidity;BME280_pressure;Samples;Min_cycle;Max_cycle;Signal;HPM_P1;HPM_P2
2024/01/29 00:01:23;;;;;;;0.00;0.00;;;;;;;3.55;86.41;102235.56;4210641;28;23315;-70
2024/01/29 00:03:50;;;;;;;6.80;0.83;;;;;;;3.64;85.77;102237.03;4194955;28;20220;-68
2024/01/29 00:06:17;;;;;;;0.27;0.27;;;;;;;3.59;85.69;102236.31;4210594;28;20331;-76
2024/01/29 00:08:43;;;;;;;0.80;0.70;;;;;;;3.36;86.41;102240.72;4213382;28;20647;-74
2024/01/29 00:11:11;;;;;;;0.00;0.00;;;;;;;3.40;86.82;102241.50;4210179;28;21043;-69
2024/01/29 00:13:37;;;;;;;0.00;0.00;;;;;;;3.28;87.64;102241.00;4209236;28;22990;-72
2024/01/29 00:16:05;;;;;;;0.10;0.10;;;;;;;3.32;87.63;102242.63;4206924;28;20240;-69
2024/01/29 00:18:31;;;;;;;0.00;0.00;;;;;;;3.40;87.29;102253.09;4200634;28;22357;-74
2024/01/29 00:20:58;;;;;;;0.40;0.40;;;;;;;3.45;86.32;102250.25;4210270;28;20235;-70
2024/01/29 00:23:25;;;;;;;4.43;1.60;;;;;;;3.57;85.09;102252.44;4210489;28;20639;-72
2024/01/29 00:25:51;;;;;;;0.10;0.10;;;;;;;3.53;84.82;102257.97;4195919;28;20239;-71
2024/01/29 00:28:18;;;;;;;0.30;0.30;;;;;;;3.46;84.76;102252.84;4208144;28;20294;-79
2024/01/29 00:30:44;;;;;;;0.10;0.10;;;;;;;3.46;85.03;102254.66;4209419;28;23374;-70
2024/01/29 00:33:11;;;;;;;0.07;0.07;;;;;;;3.38;85.15;102244.22;4207082;28;20247;-69
2024/01/29 00:35:38;;;;;;;3.90;0.97;;;;;;;3.46;84.89;102236.78;4208260;28;21213;-75
2024/01/29 00:38:05;;;;;;;0.20;0.20;;;;;;;3.52;83.28;102232.13;4207905;28;20426;-71
2024/01/29 00:40:33;;;;;;;0.40;0.27;;;;;;;3.56;83.49;102229.28;4212739;28;20234;-72
2024/01/29 00:43:00;;;;;;;0.00;0.00;;;;;;;3.48;83.83;102231.38;4205326;28;20224;-75
2024/01/29 00:45:27;;;;;;;5.00;1.50;;;;;;;3.52;82.81;102237.47;4220428;28;20327;-71
2024/01/29 00:47:53;;;;;;;0.10;0.10;;;;;;;3.43;83.59;102236.03;4209168;28;20242;-70
2024/01/29 00:50:20;;;;;;;0.43;0.43;;;;;;;3.48;82.15;102228.69;4214067;28;21903;-70
2024/01/29 00:52:47;;;;;;;0.10;0.10;;;;;;;3.42;82.10;102237.84;4205215;28;20876;-73
2024/01/29 00:55:13;;;;;;;0.10;0.10;;;;;;;3.50;82.81;102237.53;4208136;28;21141;-69
2024/01/29 00:57:40;;;;;;;1.10;1.03;;;;;;;3.37;83.48;102229.09;4207027;28;21623;-75
2024/01/29 01:00:08;;;;;;;0.00;0.00;;;;;;;3.33;84.09;102228.31;4208964;28;20307;-73
2024/01/29 01:02:35;;;;;;;1.20;0.40;;;;;;;3.05;85.00;102222.22;4212553;28;20232;-70
2024/01/29 01:05:01;;;;;;;0.10;0.10;;;;;;;2.95;85.92;102211.00;4215269;28;20516;-72
2024/01/29 01:07:28;;;;;;;1.30;0.40;;;;;;;3.21;84.90;102209.19;4213252;28;20246;-73
2024/01/29 01:09:55;;;;;;;0.30;0.30;;;;;;;3.17;84.43;102213.78;4211977;28;20295;-71
2024/01/29 01:12:22;;;;;;;1.93;0.60;;;;;;;3.19;84.30;102213.72;4215375;28;21756;-75
2024/01/29 01:14:48;;;;;;;0.47;0.47;;;;;;;3.16;83.97;102201.31;4209948;28;20613;-70
2024/01/29 01:17:15;;;;;;;4.50;0.83;;;;;;;3.04;83.76;102191.06;4212410;28;20240;-72
2024/01/29 01:19:41;;;;;;;1.10;0.33;;;;;;;3.00;84.10;102195.63;4211814;28;20276;-73
2024/01/29 01:22:08;;;;;;;0.10;0.10;;;;;;;2.92;84.13;102190.56;4207521;28;25329;-74
2024/01/29 01:24:35;;;;;;;1.43;1.17;;;;;;;3.01;83.97;102203.63;4220443;28;21910;-71
2024/01/29 01:27:02;;;;;;;0.30;0.30;;;;;;;2.88;84.24;102199.63;4208912;28;23594;-68
2024/01/29 01:29:28;;;;;;;0.00;0.00;;;;;;;2.93;84.31;102191.44;4204498;28;20242;-69
2024/01/29 01:31:55;;;;;;;0.83;0.53;;;;;;;2.85;84.08;102186.38;4205383;28;20472;-68
2024/01/29 01:34:21;;;;;;;0.00;0.00;;;;;;;2.80;84.64;102197.22;4200567;28;21903;-68
2024/01/29 01:36:48;;;;;;;0.03;0.03;;;;;;;2.89;83.84;102203.19;4205045;28;20485;-69
2024/01/29 01:39:15;;;;;;;3.43;1.00;;;;;;;2.93;83.39;102188.75;4203082;28;24080;-69
2024/01/29 01:41:48;;;;;;;0.00;0.00;;;;;;;2.91;83.19;102193.31;4204677;28;20254;-68
2024/01/29 01:44:15;;;;;;;0.10;0.10;;;;;;;2.99;82.86;102192.09;4218333;28;21066;-72
2024/01/29 01:46:41;;;;;;;0.10;0.10;;;;;;;2.82;83.76;102199.84;4202487;28;20289;-67
2024/01/29 01:49:08;;;;;;;0.20;0.20;;;;;;;2.87;83.61;102191.66;4207661;28;20562;-73
2024/01/29 01:51:37;;;;;;;0.10;0.10;;;;;;;2.88;83.69;102191.59;4203248;28;20250;-71
2024/01/29 01:54:06;;;;;;;0.00;0.00;;;;;;;2.80;84.11;102201.69;4195278;28;20520;-73
2024/01/29 01:56:33;;;;;;;0.00;0.00;;;;;;;2.64;84.85;102204.91;4204401;28;21563;-74
2024/01/29 01:59:03;;;;;;;0.50;0.50;;;;;;;2.78;84.72;102209.78;4207379;28;25611;-72
2024/01/29 02:01:31;;;;;;;0.00;0.00;;;;;;;2.54;85.68;102204.34;4203627;28;20235;-70
2024/01/29 02:03:58;;;;;;;0.00;0.00;;;;;;;2.57;85.88;102200.69;4208679;28;20526;-67
2024/01/29 02:06:25;;;;;;;0.10;0.10;;;;;;;2.61;85.82;102201.44;4209331;28;20709;-75
2024/01/29 02:08:52;;;;;;;0.10;0.10;;;;;;;2.59;86.14;102208.66;4211026;28;22078;-75
2024/01/29 02:11:19;;;;;;;0.87;0.87;;;;;;;2.41;86.87;102211.03;4208712;28;21418;-78
2024/01/29 02:13:45;;;;;;;0.10;0.10;;;;;;;2.50;86.92;102215.19;4210702;28;20414;-73
2024/01/29 02:16:12;;;;;;;0.10;0.10;;;;;;;2.44;87.26;102210.94;4209139;28;20232;-70
2024/01/29 02:18:39;;;;;;;0.00;0.00;;;;;;;2.61;86.46;102207.69;4215725;28;20233;-70
2024/01/29 02:21:06;;;;;;;1.37;1.27;;;;;;;2.53;86.86;102202.56;4210957;28;21960;-70
2024/01/29 02:23:33;;;;;;;0.00;0.00;;;;;;;2.62;86.82;102201.41;4207859;28;20240;-71
2024/01/29 02:25:59;;;;;;;0.00;0.00;;;;;;;2.58;87.14;102197.06;4212224;28;20312;-73
2024/01/29 02:28:27;;;;;;;0.10;0.10;;;;;;;2.43;88.12;102201.16;4208301;28;21606;-70
2024/01/29 02:30:54;;;;;;;0.10;0.10;;;;;;;2.43;88.33;102201.16;4209746;28;22951;-70
2024/01/29 02:33:21;;;;;;;0.00;0.00;;;;;;;2.58;87.32;102198.91;4217484;28;20274;-70
2024/01/29 02:35:48;;;;;;;0.10;0.10;;;;;;;2.59;87.66;102212.19;4209946;28;20275;-71
2024/01/29 02:38:15;;;;;;;0.00;0.00;;;;;;;2.69;86.96;102202.94;4222843;28;20236;-68
2024/01/29 02:40:42;;;;;;;0.00;0.00;;;;;;;2.66;87.17;102207.53;4206119;28;21654;-69
2024/01/29 02:43:09;;;;;;;1.30;1.20;;;;;;;2.68;86.81;102211.91;4208216;28;23935;-70
2024/01/29 02:45:36;;;;;;;0.10;0.10;;;;;;;2.59;87.46;102219.38;4211795;28;20228;-71
2024/01/29 02:48:03;;;;;;;0.10;0.10;;;;;;;2.51;87.85;102214.25;4209385;28;20238;-71
2024/01/29 02:50:30;;;;;;;0.10;0.10;;;;;;;2.60;87.71;102221.13;4207616;28;20582;-73
2024/01/29 02:52:58;;;;;;;3.80;0.73;;;;;;;2.62;87.21;102216.56;4210036;28;20234;-76
2024/01/29 02:55:25;;;;;;;0.20;0.20;;;;;;;2.58;88.00;102231.84;4210644;28;20244;-75
2024/01/29 02:57:51;;;;;;;0.10;0.10;;;;;;;2.50;88.47;102225.88;4209343;28;23678;-70
2024/01/29 03:00:18;;;;;;;0.00;0.00;;;;;;;2.46;88.90;102227.78;4204788;28;26300;-73
2024/01/29 03:02:45;;;;;;;0.03;0.03;;;;;;;2.54;88.40;102224.84;4226608;28;20237;-68
2024/01/29 03:05:11;;;;;;;0.10;0.10;;;;;;;2.67;87.60;102220.84;4209123;28;20370;-69
2024/01/29 03:07:38;;;;;;;0.10;0.10;;;;;;;2.62;88.09;102219.25;4208315;28;20232;-68
2024/01/29 03:10:05;;;;;;;0.20;0.20;;;;;;;2.59;87.67;102214.00;4213246;28;21128;-69
2024/01/29 03:12:31;;;;;;;0.10;0.10;;;;;;;2.31;89.08;102210.47;4210409;28;20450;-70
2024/01/29 03:14:58;;;;;;;0.20;0.20;;;;;;;2.50;88.43;102209.81;4208346;28;21070;-71
2024/01/29 03:17:28;;;;;;;0.40;0.40;;;;;;;2.59;87.81;102209.53;4206145;28;20250;-68
2024/01/29 03:19:56;;;;;;;0.10;0.10;;;;;;;2.59;87.21;102201.50;4211514;28;22266;-67
2024/01/29 03:22:23;;;;;;;0.87;0.63;;;;;;;2.50;87.71;102196.47;4207615;28;21792;-69
2024/01/29 03:24:49;;;;;;;0.10;0.10;;;;;;;2.57;87.29;102199.81;4199385;28;20238;-72
2024/01/29 03:27:16;;;;;;;0.20;0.20;;;;;;;2.51;87.59;102201.78;4208391;28;21063;-69
2024/01/29 03:29:42;;;;;;;0.40;0.40;;;;;;;2.47;87.81;102193.91;4209396;28;20254;-71
2024/01/29 03:32:09;;;;;;;0.30;0.30;;;;;;;2.49;87.33;102187.59;4208100;28;20233;-74
2024/01/29 03:34:41;;;;;;;4.83;1.07;;;;;;;2.53;87.33;102183.88;4218166;28;20235;-73
2024/01/29 03:37:08;;;;;;;5.33;2.23;;;;;;;2.51;87.22;102175.03;4220152;28;20302;-68
2024/01/29 03:39:34;;;;;;;0.23;0.23;;;;;;;2.35;88.00;102171.13;4206860;28;20310;-72
2024/01/29 03:42:01;;;;;;;1.60;1.50;;;;;;;2.33;87.68;102179.22;4207818;28;20479;-75
2024/01/29 03:44:27;;;;;;;1.47;1.37;;;;;;;2.30;88.13;102165.94;4197304;28;20298;-72
2024/01/29 03:46:54;;;;;;;0.10;0.10;;;;;;;2.35;87.90;102172.00;4218023;28;20236;-68
2024/01/29 03:49:21;;;;;;;0.47;0.47;;;;;;;2.31;87.83;102161.47;4200457;28;22014;-73
2024/01/29 03:51:47;;;;;;;0.10;0.10;;;;;;;2.38;87.69;102160.31;4214711;28;20661;-72
2024/01/29 03:54:14;;;;;;;2.10;1.33;;;;;;;2.32;87.71;102152.53;4211386;28;20330;-71
2024/01/29 03:56:40;;;;;;;2.67;2.50;;;;;;;2.23;87.95;102151.03;4216299;28;20382;-74
2024/01/29 03:59:11;;;;;;;0.90;0.90;;;;;;;2.17;88.59;102146.75;4221464;28;21529;-69
2024/01/29 04:01:38;;;;;;;4.43;1.73;;;;;;;2.27;88.34;102151.81;4212116;28;22989;-68
2024/01/29 04:04:09;;;;;;;5.47;1.30;;;;;;;2.28;88.29;102148.22;4213919;28;20568;-72
2024/01/29 04:06:43;;;;;;;0.10;0.10;;;;;;;2.16;88.37;102149.50;4212652;28;20315;-70
2024/01/29 04:09:12;;;;;;;4.73;1.13;;;;;;;1.99;89.28;102148.25;4217046;28;20238;-69
2024/01/29 04:11:39;;;;;;;0.47;0.47;;;;;;;1.85;89.78;102146.00;4209695;28;24967;-71
2024/01/29 04:14:05;;;;;;;0.30;0.30;;;;;;;2.03;89.40;102141.91;4212741;28;21236;-71
2024/01/29 04:16:32;;;;;;;1.33;1.23;;;;;;;2.02;88.77;102140.16;4211540;28;22342;-70
2024/01/29 04:18:59;;;;;;;0.57;0.57;;;;;;;2.05;88.93;102136.50;4204638;28;20231;-67
2024/01/29 04:21:25;;;;;;;0.10;0.10;;;;;;;2.00;89.30;102141.13;4204818;28;21953;-71
2024/01/29 04:23:52;;;;;;;0.70;0.70;;;;;;;1.97;89.32;102134.06;4206710;28;20418;-70
2024/01/29 04:26:19;;;;;;;0.53;0.20;;;;;;;1.86;89.87;102136.22;4221780;28;20235;-69
2024/01/29 04:28:46;;;;;;;3.87;0.77;;;;;;;1.89;89.39;102133.44;4207074;28;20372;-70
2024/01/29 04:31:14;;;;;;;2.53;2.43;;;;;;;1.93;89.44;102126.22;4209978;28;20229;-74
2024/01/29 04:33:43;;;;;;;3.50;1.23;;;;;;;1.73;89.70;102123.28;4213185;28;20238;-71
2024/01/29 04:36:15;;;;;;;0.10;0.10;;;;;;;1.76;90.00;102127.63;4215520;28;20267;-69
2024/01/29 04:38:43;;;;;;;0.30;0.30;;;;;;;1.85;89.21;102127.31;4209350;28;20509;-71
2024/01/29 04:41:19;;;;;;;0.40;0.40;;;;;;;1.76;89.75;102124.97;4208964;28;20307;-72
2024/01/29 04:43:46;;;;;;;1.80;1.57;;;;;;;1.73;89.85;102117.03;4211265;28;20291;-74
2024/01/29 04:46:13;;;;;;;0.30;0.30;;;;;;;1.83;89.77;102125.63;4209809;28;20281;-67
2024/01/29 04:48:41;;;;;;;0.20;0.20;;;;;;;1.80;89.60;102134.59;4211641;28;25543;-70
2024/01/29 04:51:08;;;;;;;4.13;2.20;;;;;;;1.67;89.61;102125.25;4227809;28;20356;-69
2024/01/29 04:53:36;;;;;;;0.80;0.80;;;;;;;1.65;90.33;102135.09;4207758;28;20241;-73
2024/01/29 04:56:03;;;;;;;2.67;1.13;;;;;;;1.75;89.73;102133.88;4210653;28;20286;-73
2024/01/29 04:58:30;;;;;;;0.20;0.20;;;;;;;1.73;89.84;102120.59;4215941;28;20236;-71
2024/01/29 05:00:58;;;;;;;0.43;0.40;;;;;;;1.62;90.13;102129.88;4209816;28;20235;-69
2024/01/29 05:03:26;;;;;;;0.73;0.53;;;;;;;1.60;90.21;102134.38;4213711;28;20287;-70
2024/01/29 05:05:52;;;;;;;0.43;0.40;;;;;;;1.62;90.22;102135.19;4210187;28;20240;-70
2024/01/29 05:08:19;;;;;;;0.63;0.63;;;;;;;1.48;90.94;102139.16;4213625;28;20224;-70
2024/01/29 05:10:46;;;;;;;2.10;0.87;;;;;;;1.58;90.88;102137.94;4214090;28;20291;-71
2024/01/29 05:13:12;;;;;;;1.80;1.70;;;;;;;1.47;91.16;102139.19;4214238;28;20276;-68
2024/01/29 05:15:39;;;;;;;0.77;0.77;;;;;;;1.51;91.19;102138.19;4215547;28;20298;-73
2024/01/29 05:18:06;;;;;;;3.30;1.17;;;;;;;1.52;91.42;102142.59;4211179;28;20238;-70
2024/01/29 05:20:33;;;;;;;3.47;0.93;;;;;;;1.61;91.14;102146.81;4216654;28;20247;-72
2024/01/29 05:23:00;;;;;;;0.10;0.10;;;;;;;1.58;91.56;102151.31;4210468;28;20911;-71
2024/01/29 05:25:26;;;;;;;0.40;0.40;;;;;;;1.67;90.99;102150.13;4214401;28;20366;-71
2024/01/29 05:27:53;;;;;;;0.43;0.43;;;;;;;1.65;90.78;102145.75;4211881;28;21796;-68
2024/01/29 05:30:20;;;;;;;1.33;0.60;;;;;;;1.67;90.70;102150.13;4210033;28;22499;-67
2024/01/29 05:32:46;;;;;;;1.70;1.33;;;;;;;1.69;90.44;102144.75;4212768;28;20235;-68
2024/01/29 05:35:13;;;;;;;0.10;0.10;;;;;;;1.74;89.95;102146.34;4212000;28;20414;-73
2024/01/29 05:37:40;;;;;;;7.23;4.70;;;;;;;1.72;90.23;102139.31;4214312;28;20251;-69
2024/01/29 05:40:09;;;;;;;0.10;0.10;;;;;;;1.64;90.54;102136.91;4206422;28;21036;-75
2024/01/29 05:42:36;;;;;;;0.93;0.90;;;;;;;1.60;91.03;102140.56;4214838;28;20297;-68
2024/01/29 05:45:03;;;;;;;0.10;0.10;;;;;;;1.74;90.34;102148.16;4204590;28;20291;-71
2024/01/29 05:47:30;;;;;;;0.10;0.10;;;;;;;1.81;89.70;102139.03;4210696;28;23499;-69
2024/01/29 05:49:56;;;;;;;3.07;2.87;;;;;;;1.85;89.62;102132.66;4214225;28;20291;-69
2024/01/29 05:52:23;;;;;;;0.40;0.40;;;;;;;1.78;89.78;102124.91;4215097;28;20224;-69
2024/01/29 05:54:50;;;;;;;1.60;0.73;;;;;;;1.80;89.27;102129.25;4215266;28;21784;-72
2024/01/29 05:57:20;;;;;;;0.50;0.50;;;;;;;1.79;89.21;102135.53;4218255;28;20418;-70
2024/01/29 05:59:46;;;;;;;0.43;0.43;;;;;;;1.88;89.05;102137.91;4210980;28;20251;-69
2024/01/29 06:02:13;;;;;;;19.37;3.60;;;;;;;1.81;88.98;102135.50;4213488;28;20236;-75
2024/01/29 06:04:40;;;;;;;1.53;0.73;;;;;;;1.78;88.86;102130.25;4214505;28;20261;-69
2024/01/29 06:07:07;;;;;;;2.70;1.03;;;;;;;1.76;88.93;102140.09;4215485;28;20733;-73
2024/01/29 06:09:33;;;;;;;0.87;0.40;;;;;;;1.76;89.07;102134.75;4218005;28;21597;-70
2024/01/29 06:12:00;;;;;;;2.63;0.83;;;;;;;1.63;89.82;102139.59;4215035;28;20315;-70
2024/01/29 06:14:26;;;;;;;12.00;2.67;;;;;;;1.58;90.00;102132.63;4214849;28;20678;-78
2024/01/29 06:16:57;;;;;;;3.13;2.40;;;;;;;1.60;90.33;102131.69;4218710;28;22056;-73
2024/01/29 06:19:24;;;;;;;0.37;0.37;;;;;;;1.74;90.01;102141.00;4218178;28;20240;-74
2024/01/29 06:21:51;;;;;;;0.23;0.17;;;;;;;1.64;90.09;102146.69;4230564;28;20295;-74
2024/01/29 06:24:18;;;;;;;0.87;0.87;;;;;;;1.73;89.50;102157.09;4217348;28;25057;-73
2024/01/29 06:26:44;;;;;;;0.20;0.20;;;;;;;1.73;89.62;102149.06;4214646;28;20379;-73
2024/01/29 06:29:14;;;;;;;2.53;1.13;;;;;;;1.80;89.13;102158.63;4212298;28;20273;-73
2024/01/29 06:31:42;;;;;;;5.03;2.10;;;;;;;1.67;89.58;102155.47;4217782;28;21971;-73
2024/01/29 06:34:08;;;;;;;0.20;0.20;;;;;;;1.81;89.51;102144.38;4229816;28;20674;-76
2024/01/29 06:36:36;;;;;;;8.10;2.47;;;;;;;1.71;89.84;102142.91;4213740;28;20239;-73
2024/01/29 06:39:03;;;;;;;1.67;1.57;;;;;;;1.76;89.47;102145.44;4210762;28;20239;-73
2024/01/29 06:41:31;;;;;;;4.47;0.93;;;;;;;1.86;89.12;102145.09;4214512;28;20239;-74
2024/01/29 06:43:57;;;;;;;0.50;0.50;;;;;;;1.73;89.88;102144.63;4221141;28;20238;-72
2024/01/29 06:46:24;;;;;;;3.90;1.90;;;;;;;1.78;89.36;102143.59;4220655;28;20311;-74
2024/01/29 06:48:51;;;;;;;0.83;0.73;;;;;;;1.72;89.64;102155.34;4251173;28;20235;-74
2024/01/29 06:51:17;;;;;;;0.10;0.10;;;;;;;1.76;89.38;102150.78;4208860;28;21711;-73
2024/01/29 06:53:44;;;;;;;2.07;1.53;;;;;;;1.76;89.57;102151.66;4209706;28;20312;-71
2024/01/29 06:56:11;;;;;;;2.00;1.13;;;;;;;1.91;89.38;102147.63;4223174;28;20232;-80
2024/01/29 06:58:37;;;;;;;0.57;0.57;;;;;;;1.82;89.59;102134.56;4215907;28;20231;-74
2024/01/29 07:01:05;;;;;;;1.87;1.23;;;;;;;1.85;89.30;102132.66;4222392;28;20254;-71
2024/01/29 07:03:32;;;;;;;4.97;2.65;;;;;;;1.83;88.98;102134.53;4217398;28;22297;-71
2024/01/29 07:05:59;;;;;;;0.60;0.60;;;;;;;1.92;88.60;102135.16;4217533;28;20345;-76
2024/01/29 07:08:26;;;;;;;0.10;0.10;;;;;;;1.90;88.99;102130.72;4214395;28;21035;-74
2024/01/29 07:10:54;;;;;;;5.77;2.23;;;;;;;1.80;88.66;102137.28;4213156;28;20242;-73
2024/01/29 07:13:20;;;;;;;2.47;1.27;;;;;;;1.87;88.09;102130.81;4213752;28;20377;-74
2024/01/29 07:15:47;;;;;;;2.60;0.87;;;;;;;1.92;87.91;102135.16;4215019;28;20438;-74
2024/01/29 07:18:14;;;;;;;3.40;1.60;;;;;;;1.92;87.22;102135.16;4213465;28;20264;-71
2024/01/29 07:20:43;;;;;;;0.77;0.77;;;;;;;1.89;87.20;102141.44;4211694;28;21141;-71
2024/01/29 07:23:11;;;;;;;0.63;0.63;;;;;;;1.84;87.20;102130.03;4217003;28;22180;-78
2024/01/29 07:25:40;;;;;;;0.30;0.30;;;;;;;1.82;87.36;102131.88;4202181;28;23681;-71
2024/01/29 07:28:08;;;;;;;4.90;1.23;;;;;;;1.86;86.98;102142.41;4217047;28;20244;-72
2024/01/29 07:30:36;;;;;;;0.43;0.43;;;;;;;1.82;86.69;102131.88;4210455;28;25160;-71
2024/01/29 07:33:03;;;;;;;1.90;1.13;;;;;;;1.83;86.59;102133.63;4206013;28;23124;-68
2024/01/29 07:35:30;;;;;;;1.10;0.87;;;;;;;1.81;86.60;102152.38;4221326;28;20674;-73
2024/01/29 07:37:57;;;;;;;2.07;0.90;;;;;;;1.88;86.60;102156.59;4278063;28;20229;-69
2024/01/29 07:40:24;;;;;;;0.70;0.53;;;;;;;1.93;86.48;102137.75;4220848;28;20248;-70
2024/01/29 07:42:50;;;;;;;2.83;1.83;;;;;;;1.99;86.13;102144.72;4214827;28;20252;-74
2024/01/29 07:45:21;;;;;;;0.47;0.33;;;;;;;1.87;86.70;102145.97;4214572;28;21000;-71
2024/01/29 07:47:48;;;;;;;0.67;0.67;;;;;;;1.99;86.46;102147.38;4230066;28;20680;-75
2024/01/29 07:50:15;;;;;;;1.30;0.67;;;;;;;2.11;85.62;102152.31;4225986;28;21798;-69
2024/01/29 07:52:41;;;;;;;0.43;0.27;;;;;;;1.96;86.07;102140.34;4222371;28;21785;-72
2024/01/29 07:55:08;;;;;;;2.40;1.17;;;;;;;1.93;86.65;102137.75;4219991;28;22744;-74
2024/01/29 07:57:36;;;;;;;0.10;0.10;;;;;;;2.09;86.33;102150.63;4197953;28;20393;-71
2024/01/29 08:00:03;;;;;;;0.10;0.10;;;;;;;2.26;85.46;102152.72;4210279;28;20402;-74
2024/01/29 08:02:30;;;;;;;0.50;0.50;;;;;;;2.05;85.83;102152.53;4212627;28;20242;-73
2024/01/29 08:04:57;;;;;;;1.07;1.07;;;;;;;2.25;85.75;102159.00;4214037;28;20362;-72
2024/01/29 08:07:24;;;;;;;1.67;1.17;;;;;;;2.30;85.09;102157.06;4208548;28;20265;-71
2024/01/29 08:09:50;;;;;;;6.53;1.80;;;;;;;2.36;84.71;102159.53;4214707;28;20248;-77
2024/01/29 08:12:19;;;;;;;0.10;0.10;;;;;;;2.04;86.52;102150.78;4216043;28;21090;-76
2024/01/29 08:14:47;;;;;;;4.13;0.83;;;;;;;2.21;85.63;102152.88;4214833;28;20331;-74
2024/01/29 08:17:15;;;;;;;0.47;0.43;;;;;;;2.12;86.20;102138.03;4208039;28;21620;-73
2024/01/29 08:19:41;;;;;;;0.87;0.50;;;;;;;2.22;86.05;102146.63;4211932;28;20259;-72
2024/01/29 08:22:08;;;;;;;2.83;1.80;;;;;;;2.21;85.43;102136.84;4230555;28;21752;-75
2024/01/29 08:24:37;;;;;;;2.20;0.40;;;;;;;2.19;85.43;102142.25;4236590;28;20319;-72
2024/01/29 08:27:04;;;;;;;0.10;0.10;;;;;;;2.29;85.50;102142.81;4230502;28;20232;-71
2024/01/29 08:29:31;;;;;;;1.27;0.93;;;;;;;2.29;84.99;102133.94;4206244;28;20417;-75
2024/01/29 08:31:57;;;;;;;3.17;1.07;;;;;;;2.25;85.08;102135.84;4210554;28;20354;-72
2024/01/29 08:34:25;;;;;;;2.80;1.37;;;;;;;2.40;84.41;102145.13;4212412;28;25176;-72
2024/01/29 08:36:52;;;;;;;0.10;0.10;;;;;;;2.42;84.85;102150.44;4209998;28;20236;-76
2024/01/29 08:39:19;;;;;;;1.90;0.87;;;;;;;2.43;85.18;102153.03;4210824;28;20786;-73
2024/01/29 08:41:45;;;;;;;0.87;0.67;;;;;;;2.91;82.83;102145.16;4267221;28;20317;-75
2024/01/29 08:44:12;;;;;;;2.67;0.60;;;;;;;3.54;80.37;102137.44;4241549;28;21916;-71
2024/01/29 08:46:39;;;;;;;0.10;0.10;;;;;;;5.30;73.67;102145.19;4201944;28;20243;-73
2024/01/29 08:49:05;;;;;;;2.97;1.40;;;;;;;7.73;63.16;102140.91;4231543;28;20393;-75
2024/01/29 08:51:32;;;;;;;1.03;0.50;;;;;;;10.08;55.40;102144.59;4216198;28;20240;-72
2024/01/29 08:53:59;;;;;;;0.00;0.00;;;;;;;13.01;47.76;102142.53;4218329;28;20236;-73
2024/01/29 08:56:25;;;;;;;0.93;0.57;;;;;;;14.48;41.23;102140.63;4235878;28;20453;-69
2024/01/29 08:58:52;;;;;;;0.97;0.60;;;;;;;12.62;45.08;102147.41;4222759;28;20244;-71
2024/01/29 09:01:19;;;;;;;2.10;0.63;;;;;;;12.90;44.92;102142.53;4213362;28;20521;-69
2024/01/29 09:03:46;;;;;;;0.63;0.47;;;;;;;13.24;42.58;102156.16;4267163;28;20227;-71
2024/01/29 09:06:13;;;;;;;2.47;1.03;;;;;;;12.16;44.57;102146.34;4234754;28;20237;-71
2024/01/29 09:08:42;;;;;;;0.00;0.00;;;;;;;13.40;42.98;102153.13;4202876;28;20229;-69
2024/01/29 09:11:08;;;;;;;0.10;0.10;;;;;;;14.48;40.65;102152.38;4208933;28;21581;-69
2024/01/29 09:13:35;;;;;;;0.33;0.33;;;;;;;13.78;41.76;102154.59;4229134;28;20229;-71
2024/01/29 09:16:01;;;;;;;1.40;0.83;;;;;;;12.88;43.07;102163.53;4223860;28;20583;-69
2024/01/29 09:18:28;;;;;;;0.63;0.57;;;;;;;12.10;44.28;102154.97;4207303;28;21585;-70
2024/01/29 09:20:55;;;;;;;0.10;0.10;;;;;;;13.30;42.98;102158.38;4218034;28;21243;-69
2024/01/29 09:23:22;;;;;;;0.10;0.10;;;;;;;12.74;43.55;102159.16;4221899;28;20750;-71
2024/01/29 09:25:48;;;;;;;0.30;0.30;;;;;;;11.88;46.53;102153.84;4224155;28;20239;-69
2024/01/29 09:28:15;;;;;;;0.00;0.00;;;;;;;12.85;43.19;102153.78;4221372;28;20249;-68
2024/01/29 09:30:42;;;;;;;1.50;0.70;;;;;;;13.08;42.90;102148.38;4220048;28;22802;-71
2024/01/29 09:33:12;;;;;;;0.10;0.10;;;;;;;14.25;40.41;102147.00;4202575;28;21839;-71
2024/01/29 09:35:48;;;;;;;0.20;0.20;;;;;;;14.23;40.04;102142.69;4209186;28;20382;-71
2024/01/29 09:38:15;;;;;;;2.60;1.40;;;;;;;14.01;40.71;102141.78;4208645;28;20298;-69
2024/01/29 09:40:45;;;;;;;0.57;0.43;;;;;;;14.01;40.35;102141.78;4216791;28;20233;-71
2024/01/29 09:43:16;;;;;;;0.40;0.40;;;;;;;12.31;43.69;102141.63;4196798;28;20341;-73
2024/01/29 09:45:43;;;;;;;1.80;1.03;;;;;;;11.11;46.46;102133.13;4224682;28;20228;-75
2024/01/29 09:48:13;;;;;;;0.30;0.30;;;;;;;8.97;52.35;102135.50;4235030;28;20246;-74
2024/01/29 09:50:41;;;;;;;2.53;0.77;;;;;;;7.70;56.50;102133.00;4245113;28;20228;-67
2024/01/29 09:53:10;;;;;;;1.37;0.93;;;;;;;7.08;59.45;102136.41;4211271;28;22900;-72
2024/01/29 09:55:37;;;;;;;1.00;0.67;;;;;;;6.90;61.15;102129.28;4207443;28;20279;-70
2024/01/29 09:58:04;;;;;;;0.20;0.20;;;;;;;6.72;63.22;102128.44;4212299;28;22896;-71
2024/01/29 10:00:31;;;;;;;1.60;0.80;;;;;;;7.13;61.46;102128.94;4207894;28;20231;-71
2024/01/29 10:03:04;;;;;;;0.67;0.50;;;;;;;6.54;63.09;102122.22;4206842;28;20966;-69
2024/01/29 10:05:31;;;;;;;0.20;0.20;;;;;;;6.48;64.03;102134.16;4230157;28;20517;-70
2024/01/29 10:07:59;;;;;;;2.13;1.50;;;;;;;6.43;64.29;102126.31;4234909;28;21673;-70
2024/01/29 10:10:26;;;;;;;4.67;1.80;;;;;;;6.14;65.10;102123.28;4212032;28;20240;-71
2024/01/29 10:13:06;;;;;;;0.90;0.50;;;;;;;6.27;65.15;102114.63;4227770;28;20316;-71
2024/01/29 10:15:33;;;;;;;0.70;0.40;;;;;;;6.63;63.81;102110.97;4218684;28;22321;-71
2024/01/29 10:18:00;;;;;;;0.37;0.37;;;;;;;6.36;65.12;102119.50;4220729;28;20253;-73
2024/01/29 10:20:28;;;;;;;1.00;1.00;;;;;;;6.23;65.60;102116.56;4207039;28;20236;-70
2024/01/29 10:22:59;;;;;;;5.90;2.00;;;;;;;6.32;65.08;102109.88;4211806;28;21554;-72
2024/01/29 10:25:26;;;;;;;0.37;0.37;;;;;;;6.22;65.69;102103.22;4214295;28;20237;-71
2024/01/29 10:28:03;;;;;;;2.03;0.60;;;;;;;5.86;66.71;102097.75;4209900;28;25539;-71
2024/01/29 10:30:29;;;;;;;2.20;1.40;;;;;;;5.80;67.20;102108.81;4216857;28;20414;-71
2024/01/29 10:32:57;;;;;;;0.73;0.73;;;;;;;5.72;67.95;102094.88;4200640;28;20244;-69
2024/01/29 10:35:25;;;;;;;1.50;1.00;;;;;;;5.85;67.68;102092.47;4216832;28;22538;-70
2024/01/29 10:37:58;;;;;;;0.47;0.47;;;;;;;5.89;67.56;102096.72;4206947;28;20239;-72
2024/01/29 10:40:26;;;;;;;3.33;1.43;;;;;;;6.03;67.02;102109.53;4204567;28;21927;-71
2024/01/29 10:42:54;;;;;;;6.37;1.37;;;;;;;6.07;66.92;102103.03;4196842;28;21353;-69
2024/01/29 10:45:20;;;;;;;0.13;0.13;;;;;;;5.96;67.26;102097.31;4239833;28;20228;-70
2024/01/29 10:47:52;;;;;;;4.80;1.23;;;;;;;5.89;68.22;102098.56;4204709;28;22166;-69
2024/01/29 10:50:21;;;;;;;1.10;0.73;;;;;;;6.08;67.64;102090.47;4224885;28;21602;-71
2024/01/29 10:52:48;;;;;;;7.83;2.93;;;;;;;6.09;66.97;102093.09;4207077;28;20257;-71
2024/01/29 10:55:16;;;;;;;1.80;0.70;;;;;;;6.09;66.71;102095.78;4210628;28;21321;-72
2024/01/29 10:57:49;;;;;;;5.90;1.60;;;;;;;5.85;67.23;102097.84;4227940;28;20278;-70
2024/01/29 11:00:17;;;;;;;12.17;2.07;;;;;;;5.39;69.04;102092.88;4209014;28;20239;-72
2024/01/29 11:02:45;;;;;;;3.83;1.73;;;;;;;5.28;69.43;102098.75;4210598;28;22312;-72
2024/01/29 11:05:13;;;;;;;4.63;1.13;;;;;;;5.29;69.86;102088.88;4220271;28;25404;-71
2024/01/29 11:07:43;;;;;;;2.13;1.60;;;;;;;5.43;69.33;102088.22;4210717;28;20249;-68
2024/01/29 11:10:19;;;;;;;0.20;0.20;;;;;;;5.64;68.86;102091.69;4214535;28;20243;-72
2024/01/29 11:12:47;;;;;;;0.20;0.20;;;;;;;5.83;68.29;102081.78;4223633;28;22034;-71
2024/01/29 11:15:14;;;;;;;1.90;1.20;;;;;;;5.74;68.51;102084.06;4220106;28;20432;-70
2024/01/29 11:17:42;;;;;;;4.37;1.83;;;;;;;5.80;68.62;102081.94;4217470;28;21134;-71
2024/01/29 11:20:12;;;;;;;1.43;0.70;;;;;;;5.93;68.21;102079.50;4228352;28;21811;-71
2024/01/29 11:22:51;;;;;;;7.77;1.83;;;;;;;5.88;67.79;102073.47;4264386;28;20233;-72
2024/01/29 11:25:19;;;;;;;3.13;1.40;;;;;;;5.69;68.57;102073.53;4233268;28;20397;-73
2024/01/29 11:27:48;;;;;;;1.90;0.90;;;;;;;5.64;68.63;102071.06;4224418;28;20232;-71
2024/01/29 11:30:25;;;;;;;0.87;0.67;;;;;;;5.78;68.85;102073.06;4224328;28;20239;-73
2024/01/29 11:33:16;;;;;;;1.13;1.03;;;;;;;5.86;68.26;102070.00;4216545;28;25375;-70